sensor_id;sensor_type;location;lat;lon;timestamp;temperature;humidity
49503;DHT22;35409;48.776;9.204;2023-02-28T00:01:26;-3.40;99.90
49503;DHT22;35409;48.776;9.204;2023-02-28T00:03:52;-3.50;99.90
49503;DHT22;35409;48.776;9.204;2023-02-28T00:06:17;-3.60;99.90
49503;DHT22;35409;48.776;9.204;2023-02-28T00:08:43;-3.60;99.90
49503;DHT22;35409;48.776;9.204;2023-02-28T00:11:12;-3.60;99.90
49503;DHT22;35409;48.776;9.204;2023-02-28T00:13:42;-3.60;99.90
49503;DHT22;35409;48.776;9.204;2023-02-28T00:16:12;-3.70;99.90
49503;DHT22;35409;48.776;9.204;2023-02-28T00:18:39;-3.70;99.90
49503;DHT22;35409;48.776;9.204;2023-02-28T00:21:05;-3.70;99.90
49503;DHT22;35409;48.776;9.204;2023-02-28T00:23:31;-3.70;99.90
49503;DHT22;35409;48.776;9.204;2023-02-28T00:25:57;-3.70;99.90
49503;DHT22;35409;48.776;9.204;2023-02-28T00:28:22;-3.80;99.90
49503;DHT22;35409;48.776;9.204;2023-02-28T00:30:48;-3.80;99.90
49503;DHT22;35409;48.776;9.204;2023-02-28T00:33:14;-3.50;99.90
49503;DHT22;35409;48.776;9.204;2023-02-28T00:35:39;-3.50;99.90
49503;DHT22;35409;48.776;9.204;2023-02-28T00:38:05;-3.50;99.90
49503;DHT22;35409;48.776;9.204;2023-02-28T00:40:31;-3.70;99.90
49503;DHT22;35409;48.776;9.204;2023-02-28T00:42:57;-3.70;99.90
49503;DHT22;35409;48.776;9.204;2023-02-28T00:45:22;-3.80;99.90
49503;DHT22;35409;48.776;9.204;2023-02-28T00:47:48;-3.90;99.90
49503;DHT22;35409;48.776;9.204;2023-02-28T00:50:18;-3.90;99.90
49503;DHT22;35409;48.776;9.204;2023-02-28T00:52:43;-3.90;99.90
49503;DHT22;35409;48.776;9.204;2023-02-28T00:55:09;-4.00;99.90
49503;DHT22;35409;48.776;9.204;2023-02-28T00:57:35;-4.00;99.90
49503;DHT22;35409;48.776;9.204;2023-02-28T01:00:01;-4.10;99.90
49503;DHT22;35409;48.776;9.204;2023-02-28T01:02:26;-4.10;99.90
49503;DHT22;35409;48.776;9.204;2023-02-28T01:04:52;-4.10;99.90
49503;DHT22;35409;48.776;9.204;2023-02-28T01:07:18;-4.10;99.90
49503;DHT22;35409;48.776;9.204;2023-02-28T01:09:43;-4.20;99.90
49503;DHT22;35409;48.776;9.204;2023-02-28T01:12:09;-4.20;99.90
49503;DHT22;35409;48.776;9.204;2023-02-28T01:14:35;-4.20;99.90
49503;DHT22;35409;48.776;9.204;2023-02-28T01:17:01;-4.30;99.90
49503;DHT22;35409;48.776;9.204;2023-02-28T01:19:27;-4.30;99.90
49503;DHT22;35409;48.776;9.204;2023-02-28T01:21:52;-4.30;99.90
49503;DHT22;35409;48.776;9.204;2023-02-28T01:24:18;-4.30;99.90
49503;DHT22;35409;48.776;9.204;2023-02-28T01:26:44;-4.30;99.90
49503;DHT22;35409;48.776;9.204;2023-02-28T01:29:10;-4.30;99.90
49503;DHT22;35409;48.776;9.204;2023-02-28T01:31:36;-4.40;99.90
49503;DHT22;35409;48.776;9.204;2023-02-28T01:34:02;-4.40;99.90
49503;DHT22;35409;48.776;9.204;2023-02-28T01:36:27;-4.40;99.90
49503;DHT22;35409;48.776;9.204;2023-02-28T01:38:53;-4.40;99.90
49503;DHT22;35409;48.776;9.204;2023-02-28T01:41:27;-4.40;99.90
49503;DHT22;35409;48.776;9.204;2023-02-28T01:44:02;-4.40;99.90
49503;DHT22;35409;48.776;9.204;2023-02-28T01:46:29;-4.40;99.90
49503;DHT22;35409;48.776;9.204;2023-02-28T01:49:15;-4.40;99.90
49503;DHT22;35409;48.776;9.204;2023-02-28T01:51:45;-4.40;99.90
49503;DHT22;35409;48.776;9.204;2023-02-28T01:54:26;-4.30;99.90
49503;DHT22;35409;48.776;9.204;2023-02-28T01:56:56;-4.30;99.90
49503;DHT22;35409;48.776;9.204;2023-02-28T01:59:29;-4.30;99.90
49503;DHT22;35409;48.776;9.204;2023-02-28T02:01:56;-4.30;99.90
49503;DHT22;35409;48.776;9.204;2023-02-28T02:04:23;-4.30;99.90
49503;DHT22;35409;48.776;9.204;2023-02-28T02:06:51;-4.30;99.90
49503;DHT22;35409;48.776;9.204;2023-02-28T02:09:17;-4.40;99.90
49503;DHT22;35409;48.776;9.204;2023-02-28T02:11:44;-4.40;99.90
49503;DHT22;35409;48.776;9.204;2023-02-28T02:39:35;-3.70;99.90
49503;DHT22;35409;48.776;9.204;2023-02-28T02:42:14;-3.50;99.90
49503;DHT22;35409;48.776;9.204;2023-02-28T02:44:46;-3.40;99.90
49503;DHT22;35409;48.776;9.204;2023-02-28T02:47:17;-3.30;99.90
49503;DHT22;35409;48.776;9.204;2023-02-28T02:49:49;-3.20;99.90
49503;DHT22;35409;48.776;9.204;2023-02-28T02:52:20;-3.20;99.90
49503;DHT22;35409;48.776;9.204;2023-02-28T02:54:46;-3.10;99.90
49503;DHT22;35409;48.776;9.204;2023-02-28T02:57:20;-2.90;99.90
49503;DHT22;35409;48.776;9.204;2023-02-28T02:59:47;-2.90;99.90
49503;DHT22;35409;48.776;9.204;2023-02-28T03:02:15;-2.70;99.90
49503;DHT22;35409;48.776;9.204;2023-02-28T03:04:59;-2.70;99.90
49503;DHT22;35409;48.776;9.204;2023-02-28T03:07:26;-2.70;99.90
49503;DHT22;35409;48.776;9.204;2023-02-28T03:09:56;-2.60;99.90
49503;DHT22;35409;48.776;9.204;2023-02-28T03:12:31;-2.60;99.90
49503;DHT22;35409;48.776;9.204;2023-02-28T03:18:06;-2.40;99.90
49503;DHT22;35409;48.776;9.204;2023-02-28T03:20:40;-2.40;99.90
49503;DHT22;35409;48.776;9.204;2023-02-28T03:23:20;-2.50;99.90
49503;DHT22;35409;48.776;9.204;2023-02-28T03:33:45;-2.40;99.90
49503;DHT22;35409;48.776;9.204;2023-02-28T03:36:23;-2.30;99.90
49503;DHT22;35409;48.776;9.204;2023-02-28T03:38:51;-2.30;99.90
49503;DHT22;35409;48.776;9.204;2023-02-28T03:41:25;-2.30;99.90
49503;DHT22;35409;48.776;9.204;2023-02-28T03:43:59;-2.30;99.90
49503;DHT22;35409;48.776;9.204;2023-02-28T03:46:30;-2.30;99.90
49503;DHT22;35409;48.776;9.204;2023-02-28T03:49:19;-2.20;99.90
49503;DHT22;35409;48.776;9.204;2023-02-28T03:51:47;-2.20;99.90
49503;DHT22;35409;48.776;9.204;2023-02-28T03:54:18;-2.20;99.90
49503;DHT22;35409;48.776;9.204;2023-02-28T03:57:05;-2.30;99.90
49503;DHT22;35409;48.776;9.204;2023-02-28T03:59:56;-2.30;99.90
49503;DHT22;35409;48.776;9.204;2023-02-28T04:02:24;-2.20;99.90
49503;DHT22;35409;48.776;9.204;2023-02-28T04:04:49;-2.30;99.90
49503;DHT22;35409;48.776;9.204;2023-02-28T04:07:16;-2.30;99.90
49503;DHT22;35409;48.776;9.204;2023-02-28T04:09:42;-2.10;99.90
49503;DHT22;35409;48.776;9.204;2023-02-28T04:12:08;-2.00;99.90
49503;DHT22;35409;48.776;9.204;2023-02-28T04:14:34;-2.00;99.90
49503;DHT22;35409;48.776;9.204;2023-02-28T04:16:59;-1.90;99.90
49503;DHT22;35409;48.776;9.204;2023-02-28T04:19:25;-1.90;99.90
49503;DHT22;35409;48.776;9.204;2023-02-28T04:21:52;-2.00;99.90
49503;DHT22;35409;48.776;9.204;2023-02-28T04:24:23;-2.00;99.90
49503;DHT22;35409;48.776;9.204;2023-02-28T04:26:51;-2.00;99.90
49503;DHT22;35409;48.776;9.204;2023-02-28T04:29:26;-1.80;99.90
49503;DHT22;35409;48.776;9.204;2023-02-28T04:31:52;-1.80;99.90
49503;DHT22;35409;48.776;9.204;2023-02-28T04:34:20;-1.80;99.90
49503;DHT22;35409;48.776;9.204;2023-02-28T04:36:47;-1.80;99.90
49503;DHT22;35409;48.776;9.204;2023-02-28T04:39:15;-1.70;99.90
49503;DHT22;35409;48.776;9.204;2023-02-28T04:41:40;-1.70;99.90
49503;DHT22;35409;48.776;9.204;2023-02-28T04:44:06;-1.70;99.90
49503;DHT22;35409;48.776;9.204;2023-02-28T04:46:31;-1.80;99.90
49503;DHT22;35409;48.776;9.204;2023-02-28T04:48:57;-1.80;99.90
49503;DHT22;35409;48.776;9.204;2023-02-28T04:51:23;-1.80;99.90
49503;DHT22;35409;48.776;9.204;2023-02-28T04:53:49;-1.80;99.90
49503;DHT22;35409;48.776;9.204;2023-02-28T04:56:16;-1.80;99.90
49503;DHT22;35409;48.776;9.204;2023-02-28T04:58:42;-1.80;99.90
49503;DHT22;35409;48.776;9.204;2023-02-28T05:03:43;-1.60;99.90
49503;DHT22;35409;48.776;9.204;2023-02-28T05:06:09;-1.60;99.90
49503;DHT22;35409;48.776;9.204;2023-02-28T05:08:36;-1.60;99.90
49503;DHT22;35409;48.776;9.204;2023-02-28T05:11:02;-1.70;99.90
49503;DHT22;35409;48.776;9.204;2023-02-28T05:13:28;-1.60;99.90
49503;DHT22;35409;48.776;9.204;2023-02-28T05:15:54;-1.70;99.90
49503;DHT22;35409;48.776;9.204;2023-02-28T05:18:20;-1.60;99.90
49503;DHT22;35409;48.776;9.204;2023-02-28T05:20:45;-1.60;99.90
49503;DHT22;35409;48.776;9.204;2023-02-28T05:23:12;-1.60;99.90
49503;DHT22;35409;48.776;9.204;2023-02-28T05:25:39;-1.60;99.90
49503;DHT22;35409;48.776;9.204;2023-02-28T05:28:04;-1.60;99.90
49503;DHT22;35409;48.776;9.204;2023-02-28T05:30:30;-1.60;99.90
49503;DHT22;35409;48.776;9.204;2023-02-28T05:32:58;-1.60;99.90
49503;DHT22;35409;48.776;9.204;2023-02-28T05:35:24;-1.60;99.90
49503;DHT22;35409;48.776;9.204;2023-02-28T05:37:50;-1.50;99.90
49503;DHT22;35409;48.776;9.204;2023-02-28T05:40:16;-1.60;99.90
49503;DHT22;35409;48.776;9.204;2023-02-28T05:42:41;-1.60;99.90
49503;DHT22;35409;48.776;9.204;2023-02-28T05:45:08;-1.60;99.90
49503;DHT22;35409;48.776;9.204;2023-02-28T05:47:34;-1.60;99.90
49503;DHT22;35409;48.776;9.204;2023-02-28T05:50:00;-1.50;99.90
49503;DHT22;35409;48.776;9.204;2023-02-28T05:52:26;-1.50;99.90
49503;DHT22;35409;48.776;9.204;2023-02-28T05:54:52;-1.50;99.90
49503;DHT22;35409;48.776;9.204;2023-02-28T05:57:18;-1.60;99.90
49503;DHT22;35409;48.776;9.204;2023-02-28T05:59:43;-1.60;99.90
49503;DHT22;35409;48.776;9.204;2023-02-28T06:02:13;-1.60;99.90
49503;DHT22;35409;48.776;9.204;2023-02-28T06:04:39;-1.50;99.90
49503;DHT22;35409;48.776;9.204;2023-02-28T06:07:06;-1.50;99.90
49503;DHT22;35409;48.776;9.204;2023-02-28T06:09:32;-1.50;99.90
49503;DHT22;35409;48.776;9.204;2023-02-28T06:12:03;-1.40;99.90
49503;DHT22;35409;48.776;9.204;2023-02-28T06:14:31;-1.50;99.90
49503;DHT22;35409;48.776;9.204;2023-02-28T06:16:58;-1.50;99.90
49503;DHT22;35409;48.776;9.204;2023-02-28T06:19:24;-1.50;99.90
49503;DHT22;35409;48.776;9.204;2023-02-28T06:21:53;-1.40;99.90
49503;DHT22;35409;48.776;9.204;2023-02-28T06:24:20;-1.40;99.90
49503;DHT22;35409;48.776;9.204;2023-02-28T06:26:46;-1.30;99.90
49503;DHT22;35409;48.776;9.204;2023-02-28T06:29:12;-1.40;99.90
49503;DHT22;35409;48.776;9.204;2023-02-28T06:31:41;-1.40;99.90
49503;DHT22;35409;48.776;9.204;2023-02-28T06:34:07;-1.40;99.90
49503;DHT22;35409;48.776;9.204;2023-02-28T06:36:32;-1.30;99.90
49503;DHT22;35409;48.776;9.204;2023-02-28T06:38:58;-1.40;99.90
49503;DHT22;35409;48.776;9.204;2023-02-28T06:41:25;-1.40;99.90
49503;DHT22;35409;48.776;9.204;2023-02-28T06:43:51;-1.30;99.90
49503;DHT22;35409;48.776;9.204;2023-02-28T06:46:17;-1.30;99.90
49503;DHT22;35409;48.776;9.204;2023-02-28T06:48:44;-1.20;99.90
49503;DHT22;35409;48.776;9.204;2023-02-28T06:51:18;-1.20;99.90
49503;DHT22;35409;48.776;9.204;2023-02-28T06:53:48;-1.20;99.90
49503;DHT22;35409;48.776;9.204;2023-02-28T06:58:41;-1.00;99.90
49503;DHT22;35409;48.776;9.204;2023-02-28T07:01:08;-0.90;99.90
49503;DHT22;35409;48.776;9.204;2023-02-28T07:03:35;-1.00;99.90
49503;DHT22;35409;48.776;9.204;2023-02-28T07:06:01;-0.90;99.90
49503;DHT22;35409;48.776;9.204;2023-02-28T07:08:28;-0.90;99.90
49503;DHT22;35409;48.776;9.204;2023-02-28T07:10:57;-0.90;99.90
49503;DHT22;35409;48.776;9.204;2023-02-28T07:13:23;-0.90;99.90
49503;DHT22;35409;48.776;9.204;2023-02-28T07:15:58;-0.90;99.90
49503;DHT22;35409;48.776;9.204;2023-02-28T07:18:24;-0.90;99.90
49503;DHT22;35409;48.776;9.204;2023-02-28T07:20:50;-0.80;99.90
49503;DHT22;35409;48.776;9.204;2023-02-28T07:23:16;-0.80;99.90
49503;DHT22;35409;48.776;9.204;2023-02-28T07:25:41;-0.80;99.90
49503;DHT22;35409;48.776;9.204;2023-02-28T07:28:07;-0.80;99.90
49503;DHT22;35409;48.776;9.204;2023-02-28T07:30:32;-0.70;99.90
49503;DHT22;35409;48.776;9.204;2023-02-28T07:32:58;-0.80;99.90
49503;DHT22;35409;48.776;9.204;2023-02-28T07:35:24;-0.70;99.90
49503;DHT22;35409;48.776;9.204;2023-02-28T07:37:49;-0.60;99.90
49503;DHT22;35409;48.776;9.204;2023-02-28T07:40:15;-0.70;99.90
49503;DHT22;35409;48.776;9.204;2023-02-28T07:42:43;-0.60;99.90
49503;DHT22;35409;48.776;9.204;2023-02-28T07:45:10;-0.50;99.90
49503;DHT22;35409;48.776;9.204;2023-02-28T07:47:38;-0.50;99.90
49503;DHT22;35409;48.776;9.204;2023-02-28T07:50:05;-0.60;99.90
49503;DHT22;35409;48.776;9.204;2023-02-28T07:52:31;-0.60;99.90
49503;DHT22;35409;48.776;9.204;2023-02-28T07:54:57;-0.50;99.90
49503;DHT22;35409;48.776;9.204;2023-02-28T07:57:23;-0.50;99.90
49503;DHT22;35409;48.776;9.204;2023-02-28T07:59:48;-0.40;99.90
49503;DHT22;35409;48.776;9.204;2023-02-28T08:02:16;-0.40;99.90
49503;DHT22;35409;48.776;9.204;2023-02-28T08:04:42;-0.40;99.90
49503;DHT22;35409;48.776;9.204;2023-02-28T08:07:08;-0.40;99.90
49503;DHT22;35409;48.776;9.204;2023-02-28T08:09:38;-0.40;99.90
49503;DHT22;35409;48.776;9.204;2023-02-28T08:12:04;-0.40;99.90
49503;DHT22;35409;48.776;9.204;2023-02-28T08:14:30;-0.30;99.90
49503;DHT22;35409;48.776;9.204;2023-02-28T08:16:55;-0.30;99.90
49503;DHT22;35409;48.776;9.204;2023-02-28T08:19:21;-0.30;99.90
49503;DHT22;35409;48.776;9.204;2023-02-28T08:21:46;-0.30;99.90
49503;DHT22;35409;48.776;9.204;2023-02-28T08:24:12;-0.20;99.90
49503;DHT22;35409;48.776;9.204;2023-02-28T08:26:37;-0.20;99.90
49503;DHT22;35409;48.776;9.204;2023-02-28T08:29:03;-0.10;99.90
49503;DHT22;35409;48.776;9.204;2023-02-28T08:31:29;-0.10;99.90
49503;DHT22;35409;48.776;9.204;2023-02-28T08:33:54;-0.10;99.90
49503;DHT22;35409;48.776;9.204;2023-02-28T08:36:24;-0.10;99.90
49503;DHT22;35409;48.776;9.204;2023-02-28T08:53:35;0.50;99.90
49503;DHT22;35409;48.776;9.204;2023-02-28T08:56:04;0.50;99.90
49503;DHT22;35409;48.776;9.204;2023-02-28T08:58:30;0.50;99.90
49503;DHT22;35409;48.776;9.204;2023-02-28T09:00:56;0.40;99.90
49503;DHT22;35409;48.776;9.204;2023-02-28T09:03:22;0.40;99.90
49503;DHT22;35409;48.776;9.204;2023-02-28T09:05:56;0.40;99.90
49503;DHT22;35409;48.776;9.204;2023-02-28T09:08:23;0.50;99.90
49503;DHT22;35409;48.776;9.204;2023-02-28T09:10:50;0.60;99.90
49503;DHT22;35409;48.776;9.204;2023-02-28T09:13:16;0.70;99.90
49503;DHT22;35409;48.776;9.204;2023-02-28T09:15:42;0.70;99.90
49503;DHT22;35409;48.776;9.204;2023-02-28T09:18:08;0.70;99.90
49503;DHT22;35409;48.776;9.204;2023-02-28T09:20:37;0.80;99.90
49503;DHT22;35409;48.776;9.204;2023-02-28T09:23:03;0.80;99.90
49503;DHT22;35409;48.776;9.204;2023-02-28T09:25:28;0.80;99.90
49503;DHT22;35409;48.776;9.204;2023-02-28T09:27:54;0.90;99.90
49503;DHT22;35409;48.776;9.204;2023-02-28T09:30:19;1.30;99.90
49503;DHT22;35409;48.776;9.204;2023-02-28T09:32:45;1.10;99.90
49503;DHT22;35409;48.776;9.204;2023-02-28T09:35:17;1.20;99.90
49503;DHT22;35409;48.776;9.204;2023-02-28T09:37:43;1.20;99.90
49503;DHT22;35409;48.776;9.204;2023-02-28T09:40:10;1.20;99.90
49503;DHT22;35409;48.776;9.204;2023-02-28T09:42:37;1.30;99.90
49503;DHT22;35409;48.776;9.204;2023-02-28T09:45:13;1.30;99.90
49503;DHT22;35409;48.776;9.204;2023-02-28T09:47:45;1.40;99.90
49503;DHT22;35409;48.776;9.204;2023-02-28T09:50:23;1.50;99.90
49503;DHT22;35409;48.776;9.204;2023-02-28T09:52:54;1.40;99.90
49503;DHT22;35409;48.776;9.204;2023-02-28T09:55:33;1.50;99.90
49503;DHT22;35409;48.776;9.204;2023-02-28T09:58:00;1.50;99.90
49503;DHT22;35409;48.776;9.204;2023-02-28T10:00:36;1.60;99.90
49503;DHT22;35409;48.776;9.204;2023-02-28T10:03:28;1.60;99.90
49503;DHT22;35409;48.776;9.204;2023-02-28T10:06:15;1.70;99.90
49503;DHT22;35409;48.776;9.204;2023-02-28T10:08:52;1.80;99.90
49503;DHT22;35409;48.776;9.204;2023-02-28T10:11:22;1.80;99.90
49503;DHT22;35409;48.776;9.204;2023-02-28T10:16:47;2.10;99.90
49503;DHT22;35409;48.776;9.204;2023-02-28T10:19:30;2.10;99.90
49503;DHT22;35409;48.776;9.204;2023-02-28T10:22:19;2.20;99.90
49503;DHT22;35409;48.776;9.204;2023-02-28T10:24:48;2.20;99.90
49503;DHT22;35409;48.776;9.204;2023-02-28T10:27:20;2.30;99.90
49503;DHT22;35409;48.776;9.204;2023-02-28T10:29:51;2.30;99.90
49503;DHT22;35409;48.776;9.204;2023-02-28T10:32:19;2.50;99.90
49503;DHT22;35409;48.776;9.204;2023-02-28T10:37:38;2.90;99.90
49503;DHT22;35409;48.776;9.204;2023-02-28T10:40:05;2.90;99.90
49503;DHT22;35409;48.776;9.204;2023-02-28T10:42:32;3.00;99.90
49503;DHT22;35409;48.776;9.204;2023-02-28T10:45:16;2.90;99.90
49503;DHT22;35409;48.776;9.204;2023-02-28T10:47:57;2.90;99.90
49503;DHT22;35409;48.776;9.204;2023-02-28T10:55:57;3.00;99.90
49503;DHT22;35409;48.776;9.204;2023-02-28T10:58:25;3.00;99.90
49503;DHT22;35409;48.776;9.204;2023-02-28T11:00:52;3.10;99.90
49503;DHT22;35409;48.776;9.204;2023-02-28T11:03:38;3.00;99.90
49503;DHT22;35409;48.776;9.204;2023-02-28T11:06:07;2.80;99.90
49503;DHT22;35409;48.776;9.204;2023-02-28T11:08:34;2.60;99.90
49503;DHT22;35409;48.776;9.204;2023-02-28T11:11:04;2.60;99.90
49503;DHT22;35409;48.776;9.204;2023-02-28T11:13:35;2.70;99.90
49503;DHT22;35409;48.776;9.204;2023-02-28T11:16:06;2.80;99.90
49503;DHT22;35409;48.776;9.204;2023-02-28T11:21:01;3.10;99.90
49503;DHT22;35409;48.776;9.204;2023-02-28T11:23:30;3.30;99.90
49503;DHT22;35409;48.776;9.204;2023-02-28T11:26:00;3.40;99.90
49503;DHT22;35409;48.776;9.204;2023-02-28T11:28:34;3.40;99.90
49503;DHT22;35409;48.776;9.204;2023-02-28T11:33:53;3.50;99.70
49503;DHT22;35409;48.776;9.204;2023-02-28T11:36:26;3.50;99.90
49503;DHT22;35409;48.776;9.204;2023-02-28T11:38:56;3.50;99.90
49503;DHT22;35409;48.776;9.204;2023-02-28T11:41:37;3.70;99.90
49503;DHT22;35409;48.776;9.204;2023-02-28T11:46:52;3.60;99.40
49503;DHT22;35409;48.776;9.204;2023-02-28T11:51:54;3.40;99.90
49503;DHT22;35409;48.776;9.204;2023-02-28T11:54:47;3.50;99.90
49503;DHT22;35409;48.776;9.204;2023-02-28T12:11:55;3.40;99.80
49503;DHT22;35409;48.776;9.204;2023-02-28T12:16:32;3.90;99.30
49503;DHT22;35409;48.776;9.204;2023-02-28T12:27:00;4.70;97.00
49503;DHT22;35409;48.776;9.204;2023-02-28T12:29:34;4.80;97.00
49503;DHT22;35409;48.776;9.204;2023-02-28T12:32:23;4.80;96.50
49503;DHT22;35409;48.776;9.204;2023-02-28T12:35:03;4.90;96.90
49503;DHT22;35409;48.776;9.204;2023-02-28T12:37:35;5.40;95.70
49503;DHT22;35409;48.776;9.204;2023-02-28T12:40:11;5.90;99.90
49503;DHT22;35409;48.776;9.204;2023-02-28T12:42:48;6.10;93.90
49503;DHT22;35409;48.776;9.204;2023-02-28T12:45:31;6.20;93.10
49503;DHT22;35409;48.776;9.204;2023-02-28T12:48:04;6.30;92.70
49503;DHT22;35409;48.776;9.204;2023-02-28T12:50:32;6.50;92.20
49503;DHT22;35409;48.776;9.204;2023-02-28T12:53:09;6.60;91.90
49503;DHT22;35409;48.776;9.204;2023-02-28T13:09:01;8.30;86.20
49503;DHT22;35409;48.776;9.204;2023-02-28T13:11:48;8.60;84.90
49503;DHT22;35409;48.776;9.204;2023-02-28T13:14:37;8.80;82.90
49503;DHT22;35409;48.776;9.204;2023-02-28T13:19:31;9.10;82.10
49503;DHT22;35409;48.776;9.204;2023-02-28T13:21:58;9.40;81.30
49503;DHT22;35409;48.776;9.204;2023-02-28T13:24:38;9.50;79.90
49503;DHT22;35409;48.776;9.204;2023-02-28T13:29:35;9.30;78.90
49503;DHT22;35409;48.776;9.204;2023-02-28T13:39:56;8.90;78.30
49503;DHT22;35409;48.776;9.204;2023-02-28T13:47:44;8.60;78.70
49503;DHT22;35409;48.776;9.204;2023-02-28T13:50:48;8.50;79.20
49503;DHT22;35409;48.776;9.204;2023-02-28T14:04:38;8.20;80.00
49503;DHT22;35409;48.776;9.204;2023-02-28T14:07:09;8.40;78.50
49503;DHT22;35409;48.776;9.204;2023-02-28T14:09:46;8.60;78.80
49503;DHT22;35409;48.776;9.204;2023-02-28T14:21:01;8.00;78.50
49503;DHT22;35409;48.776;9.204;2023-02-28T14:24:08;8.00;79.20
49503;DHT22;35409;48.776;9.204;2023-02-28T14:27:13;7.90;79.50
49503;DHT22;35409;48.776;9.204;2023-02-28T14:30:03;8.00;79.20
49503;DHT22;35409;48.776;9.204;2023-02-28T14:37:51;7.90;78.90
49503;DHT22;35409;48.776;9.204;2023-02-28T14:40:32;7.50;81.00
49503;DHT22;35409;48.776;9.204;2023-02-28T14:43:05;7.50;81.00
49503;DHT22;35409;48.776;9.204;2023-02-28T14:45:33;7.70;81.00
49503;DHT22;35409;48.776;9.204;2023-02-28T14:47:59;7.80;79.50
49503;DHT22;35409;48.776;9.204;2023-02-28T14:50:30;7.50;79.90
49503;DHT22;35409;48.776;9.204;2023-02-28T14:52:56;7.30;80.80
49503;DHT22;35409;48.776;9.204;2023-02-28T14:55:34;7.00;81.20
49503;DHT22;35409;48.776;9.204;2023-02-28T14:58:06;6.80;81.70
49503;DHT22;35409;48.776;9.204;2023-02-28T15:00:33;6.60;82.70
49503;DHT22;35409;48.776;9.204;2023-02-28T15:03:00;6.50;82.80
49503;DHT22;35409;48.776;9.204;2023-02-28T15:05:29;6.40;83.60
49503;DHT22;35409;48.776;9.204;2023-02-28T15:08:25;6.30;84.30
49503;DHT22;35409;48.776;9.204;2023-02-28T15:11:06;6.20;84.00
49503;DHT22;35409;48.776;9.204;2023-02-28T15:13:45;6.20;84.70
49503;DHT22;35409;48.776;9.204;2023-02-28T15:16:15;6.20;85.20
49503;DHT22;35409;48.776;9.204;2023-02-28T15:21:16;6.20;85.40
49503;DHT22;35409;48.776;9.204;2023-02-28T15:23:46;6.20;85.10
49503;DHT22;35409;48.776;9.204;2023-02-28T15:26:20;6.10;85.90
49503;DHT22;35409;48.776;9.204;2023-02-28T15:28:56;6.10;85.90
49503;DHT22;35409;48.776;9.204;2023-02-28T15:33:55;6.00;86.50
49503;DHT22;35409;48.776;9.204;2023-02-28T15:36:25;6.00;86.80
49503;DHT22;35409;48.776;9.204;2023-02-28T15:38:53;5.90;86.70
49503;DHT22;35409;48.776;9.204;2023-02-28T15:41:25;5.90;87.20
49503;DHT22;35409;48.776;9.204;2023-02-28T15:44:27;5.80;87.40
49503;DHT22;35409;48.776;9.204;2023-02-28T15:47:01;5.80;88.20
49503;DHT22;35409;48.776;9.204;2023-02-28T15:49:29;5.70;88.20
49503;DHT22;35409;48.776;9.204;2023-02-28T15:51:58;5.70;88.10
49503;DHT22;35409;48.776;9.204;2023-02-28T15:54:31;5.70;88.60
49503;DHT22;35409;48.776;9.204;2023-02-28T15:57:03;5.70;88.90
49503;DHT22;35409;48.776;9.204;2023-02-28T15:59:30;5.80;88.50
49503;DHT22;35409;48.776;9.204;2023-02-28T16:02:16;5.70;88.50
49503;DHT22;35409;48.776;9.204;2023-02-28T16:05:00;5.50;89.40
49503;DHT22;35409;48.776;9.204;2023-02-28T16:07:26;5.40;90.00
49503;DHT22;35409;48.776;9.204;2023-02-28T16:09:52;5.20;90.10
49503;DHT22;35409;48.776;9.204;2023-02-28T16:12:19;5.10;90.40
49503;DHT22;35409;48.776;9.204;2023-02-28T16:14:52;5.00;90.50
49503;DHT22;35409;48.776;9.204;2023-02-28T16:17:30;4.90;90.70
49503;DHT22;35409;48.776;9.204;2023-02-28T16:19:56;4.80;91.10
49503;DHT22;35409;48.776;9.204;2023-02-28T16:22:22;4.70;91.20
49503;DHT22;35409;48.776;9.204;2023-02-28T16:24:48;4.60;91.70
49503;DHT22;35409;48.776;9.204;2023-02-28T16:27:21;4.50;92.10
49503;DHT22;35409;48.776;9.204;2023-02-28T16:29:50;4.40;92.20
49503;DHT22;35409;48.776;9.204;2023-02-28T16:32:16;4.30;92.40
49503;DHT22;35409;48.776;9.204;2023-02-28T16:34:43;4.20;92.60
49503;DHT22;35409;48.776;9.204;2023-02-28T16:37:17;4.10;92.90
49503;DHT22;35409;48.776;9.204;2023-02-28T16:39:44;4.00;93.10
49503;DHT22;35409;48.776;9.204;2023-02-28T16:42:22;4.00;93.50
49503;DHT22;35409;48.776;9.204;2023-02-28T16:44:48;3.90;93.70
49503;DHT22;35409;48.776;9.204;2023-02-28T16:47:14;3.90;94.00
49503;DHT22;35409;48.776;9.204;2023-02-28T16:49:40;3.70;94.30
49503;DHT22;35409;48.776;9.204;2023-02-28T16:52:08;3.60;94.60
49503;DHT22;35409;48.776;9.204;2023-02-28T16:54:34;3.50;95.80
49503;DHT22;35409;48.776;9.204;2023-02-28T16:57:00;3.40;96.20
49503;DHT22;35409;48.776;9.204;2023-02-28T16:59:27;3.30;97.30
49503;DHT22;35409;48.776;9.204;2023-02-28T17:01:54;3.20;97.50
49503;DHT22;35409;48.776;9.204;2023-02-28T17:04:19;3.20;98.00
49503;DHT22;35409;48.776;9.204;2023-02-28T17:06:45;3.10;98.20
49503;DHT22;35409;48.776;9.204;2023-02-28T17:09:17;3.00;98.20
49503;DHT22;35409;48.776;9.204;2023-02-28T17:11:43;3.00;98.20
49503;DHT22;35409;48.776;9.204;2023-02-28T17:14:09;3.00;98.50
49503;DHT22;35409;48.776;9.204;2023-02-28T17:16:36;2.90;98.60
49503;DHT22;35409;48.776;9.204;2023-02-28T17:19:06;2.80;99.10
49503;DHT22;35409;48.776;9.204;2023-02-28T17:21:32;2.80;99.20
49503;DHT22;35409;48.776;9.204;2023-02-28T17:23:59;2.80;99.90
49503;DHT22;35409;48.776;9.204;2023-02-28T17:26:25;2.50;99.90
49503;DHT22;35409;48.776;9.204;2023-02-28T17:28:52;2.40;99.90
49503;DHT22;35409;48.776;9.204;2023-02-28T17:31:19;2.40;99.90
49503;DHT22;35409;48.776;9.204;2023-02-28T17:33:44;2.40;99.90
49503;DHT22;35409;48.776;9.204;2023-02-28T17:36:14;2.30;99.90
49503;DHT22;35409;48.776;9.204;2023-02-28T17:38:40;2.40;99.90
49503;DHT22;35409;48.776;9.204;2023-02-28T17:41:06;2.40;99.90
49503;DHT22;35409;48.776;9.204;2023-02-28T17:43:33;2.30;99.90
49503;DHT22;35409;48.776;9.204;2023-02-28T17:45:58;2.30;99.90
49503;DHT22;35409;48.776;9.204;2023-02-28T17:48:24;2.30;99.90
49503;DHT22;35409;48.776;9.204;2023-02-28T17:50:50;2.30;99.90
49503;DHT22;35409;48.776;9.204;2023-02-28T17:53:16;2.20;99.90
49503;DHT22;35409;48.776;9.204;2023-02-28T17:55:42;2.20;99.90
49503;DHT22;35409;48.776;9.204;2023-02-28T17:58:09;2.10;99.90
49503;DHT22;35409;48.776;9.204;2023-02-28T18:00:36;1.90;99.90
49503;DHT22;35409;48.776;9.204;2023-02-28T18:03:03;1.80;99.90
49503;DHT22;35409;48.776;9.204;2023-02-28T18:05:28;1.70;99.90
49503;DHT22;35409;48.776;9.204;2023-02-28T18:07:55;1.50;99.90
49503;DHT22;35409;48.776;9.204;2023-02-28T18:10:22;1.40;99.90
49503;DHT22;35409;48.776;9.204;2023-02-28T18:12:49;1.40;99.90
49503;DHT22;35409;48.776;9.204;2023-02-28T18:15:17;1.30;99.90
49503;DHT22;35409;48.776;9.204;2023-02-28T18:17:43;1.20;99.90
49503;DHT22;35409;48.776;9.204;2023-02-28T18:20:11;1.00;99.90
49503;DHT22;35409;48.776;9.204;2023-02-28T18:22:38;1.00;99.90
49503;DHT22;35409;48.776;9.204;2023-02-28T18:25:05;0.90;99.90
49503;DHT22;35409;48.776;9.204;2023-02-28T18:27:32;0.80;99.90
49503;DHT22;35409;48.776;9.204;2023-02-28T18:29:57;0.70;99.90
49503;DHT22;35409;48.776;9.204;2023-02-28T18:32:23;0.60;99.90
49503;DHT22;35409;48.776;9.204;2023-02-28T18:34:49;0.50;99.90
49503;DHT22;35409;48.776;9.204;2023-02-28T18:37:15;0.40;99.90